• Join FlightAware (Why Join?)
  • Login
  • US Flag 
04:20AM EDT


 

Airport Tracker/Info


-or-


 

Live Flight TrackerFlight Track Log ✈ FIV428 ✈ 15-Jul-2013 ✈ KSAV - KTEB

Flight Track Log - Related Links

Times and Time Zones

All times are in EDT time to prevent confusion due to time zone crossing. See the FIV428 flight status page for this flight to view local times or setup timezone preferences in your user account.

Time Position Orientation Groundspeed Altitude Reporting Facility
EDT Latitude Longitude Course Direction KTS MPH feet Rate Location/Type
04:49PM 32.2253 -81.1392 North 283 326 7,100  Level Jacksonville Center
04:50PM 32.3050 -81.1647 345° North 302 348 10,000 1,500 Climbing Jacksonville Center
04:51PM 32.3964 -81.1211 22° Northeast 292 336 10,100 1,080 Climbing Jacksonville Center
04:52PM 32.4708 -81.0778 26° Northeast 292 336 12,200 1,980 Climbing Jacksonville Center
04:53PM 32.5494 -81.0319 26° Northeast 308 354 14,100 1,920 Climbing Jacksonville Center
04:54PM 32.6720 -81.1500 North  Level FlightAware Approximate
04:54PM 32.6281 -80.9858 26° Northeast 308 354 16,100  Level Jacksonville Center
04:55PM 32.7656 -81.1435 North  Level FlightAware Approximate
04:55PM 32.7047 -80.9372 28° Northeast 308 354 17,800  Level Jacksonville Center
04:56PM 32.7792 -80.8911 28° Northeast 302 348 19,800 2,040 Climbing Jacksonville Center
04:57PM 32.8556 -80.8450 27° Northeast 302 348 21,900 1,620 Climbing Jacksonville Center
04:58PM 32.9322 -80.8011 26° Northeast 302 348 23,100 1,320 Climbing Jacksonville Center
04:59PM 33.0128 -80.7497 28° Northeast 302 348 24,600 1,800 Climbing Jacksonville Center
05:00PM 33.0808 -80.7083 27° Northeast 307 353 26,700 2,100 Climbing Jacksonville Center
05:01PM 33.1531 -80.6669 26° Northeast 300 345 28,900 1,920 Climbing Jacksonville Center
05:02PM 33.2233 -80.6256 26° Northeast 286 329 30,600 1,560 Climbing Jacksonville Center
05:03PM 33.2892 -80.5717 34° Northeast 280 322 32,100 1,500 Climbing Jacksonville Center
05:04PM 33.3442 -80.5006 47° Northeast 280 322 33,600 1,500 Climbing Jacksonville Center
05:05PM 33.3972 -80.4294 48° Northeast 280 322 35,100 1,320 Climbing Jacksonville Center
05:06PM 33.4539 -80.3533 48° Northeast 285 328 36,300 1,020 Climbing Jacksonville Center
05:07PM 33.5108 -80.2769 48° Northeast 295 339 37,200 780 Climbing Jacksonville Center
05:08PM 33.5717 -80.1953 48° Northeast 305 351 37,900 660 Climbing Jacksonville Center
05:09PM 33.6347 -80.1086 49° Northeast 322 371 38,600 660 Climbing Jacksonville Center
05:10PM 33.7014 -80.0217 47° Northeast 335 386 39,300 660 Climbing Jacksonville Center
05:11PM 33.7706 -79.9419 44° Northeast 341 392 40,000 600 Climbing Jacksonville Center
05:12PM 33.8611 -79.8914 25° Northeast 341 392 40,600 480 Climbing Jacksonville Center
05:13PM 33.9539 -79.8406 24° Northeast 346 398 41,000 180 Climbing Jacksonville Center
05:14PM 34.0486 -79.7897 24° Northeast 357 411 41,000  Level Jacksonville Center
05:16PM 34.2203 -79.7006 23° Northeast 365 420 41,000  Level Washington Center
05:17PM 34.3308 -79.6358 26° Northeast 377 434 41,000  Level Washington Center
05:18PM 34.4286 -79.5828 24° Northeast 382 440 41,000  Level Washington Center
05:19PM 34.5283 -79.5294 24° Northeast 382 440 41,000  Level Washington Center
05:20PM 34.6283 -79.4764 24° Northeast 382 440 41,000  Level Washington Center
05:21PM 34.7258 -79.4253 23° Northeast 382 440 41,000  Level Washington Center
05:22PM 34.8236 -79.3719 24° Northeast 382 440 41,000  Level Washington Center
05:23PM 34.9192 -79.3181 25° Northeast 382 440 41,000  Level Washington Center
05:24PM 35.0167 -79.2642 24° Northeast 382 440 41,000  Level Washington Center
05:25PM 35.1164 -79.2128 23° Northeast 382 440 41,000  Level Washington Center
05:26PM 35.2142 -79.1564 25° Northeast 382 440 41,000  Level Washington Center
05:27PM 35.3181 -79.0997 24° Northeast 382 440 41,000  Level Washington Center
05:28PM 35.4178 -79.0456 24° Northeast 388 447 41,000  Level Washington Center
05:29PM 35.5153 -78.9911 24° Northeast 382 440 41,000  Level Washington Center
05:30PM 35.6128 -78.9389 24° Northeast 382 440 41,000  Level Washington Center
05:31PM 35.7122 -78.8844 24° Northeast 382 440 41,000  Level Washington Center
05:32PM 35.8119 -78.8244 26° Northeast 382 440 41,000  Level Washington Center
05:33PM 35.9094 -78.7719 24° Northeast 387 445 41,000  Level Washington Center
05:34PM 36.0089 -78.7144 25° Northeast 387 445 41,000  Level Washington Center
05:35PM 36.1064 -78.6592 25° Northeast 387 445 41,000  Level Washington Center
05:36PM 36.2039 -78.6011 26° Northeast 387 445 41,000  Level Washington Center
05:37PM 36.3011 -78.5456 25° Northeast 387 445 41,000  Level Washington Center
05:38PM 36.4006 -78.4900 24° Northeast 387 445 41,000  Level Washington Center
05:39PM 36.4978 -78.4342 25° Northeast 387 445 41,000  Level Washington Center
05:40PM 36.5911 -78.3728 28° Northeast 387 445 41,000  Level Washington Center
05:41PM 36.6656 -78.3186 30° Northeast 387 445 41,000  Level Washington Center
05:42PM 36.7631 -78.2417 32° Northeast 377 434 41,000  Level Washington Center
05:43PM 36.8542 -78.1747 30° Northeast 377 434 41,000  Level Washington Center
05:44PM 36.9456 -78.1050 31° Northeast 377 434 41,000  Level Washington Center
05:45PM 37.0367 -78.0378 30° Northeast 382 440 41,000  Level Washington Center
05:46PM 37.1319 -77.9678 30° Northeast 382 440 41,000  Level Washington Center
05:47PM 37.2228 -77.9000 31° Northeast 382 440 41,000  Level Washington Center
05:48PM 37.3139 -77.8272 32° Northeast 382 440 41,000  Level Washington Center
05:49PM 37.4050 -77.7567 32° Northeast 382 440 41,000  Level Washington Center
05:50PM 37.4981 -77.6886 30° Northeast 382 440 41,000  Level Washington Center
05:51PM 37.5908 -77.6178 31° Northeast 382 440 41,000 -420 Level Washington Center
05:52PM 37.6839 -77.5442 32° Northeast 382 440 40,200 -1,140 Descending Washington Center
05:53PM 37.7747 -77.4756 31° Northeast 382 440 38,800 -1,440 Descending Washington Center
05:54PM 37.8675 -77.4017 32° Northeast 382 440 37,400 -1,440 Descending Washington Center
05:55PM 37.9625 -77.3300 31° Northeast 382 440 36,000 -1,380 Descending Washington Center
05:56PM 38.0489 -77.2608 32° Northeast 382 440 34,600 -1,440 Descending Washington Center
05:57PM 38.1417 -77.1889 31° Northeast 377 434 33,200 -1,440 Descending Washington Center
05:58PM 38.2408 -77.1117 31° Northeast 395 455 31,800 -1,140 Descending Washington Center
05:59PM 38.3314 -77.0394 32° Northeast 395 455 31,000 -420 Descending Washington Center
06:00PM 38.4303 -76.9619 32° Northeast 395 455 31,000 -600 Level Washington Center
06:01PM 38.5292 -76.8867 31° Northeast 405 466 29,900 -1,140 Descending Washington Center
06:02PM 38.6236 -76.8086 33° Northeast 405 466 28,700 -960 Descending Washington Center
06:03PM 38.7183 -76.7250 35° Northeast 405 466 28,000 -360 Descending Washington Center
06:04PM 38.8047 -76.6333 40° Northeast 405 466 28,000 -360 Level Washington Center
06:05PM 38.8889 -76.5358 42° Northeast 405 466 27,300 -1,140 Descending Washington Center
06:06PM 38.9708 -76.4381 43° Northeast 405 466 25,800 -1,440 Descending Washington Center
06:07PM 39.0528 -76.3428 42° Northeast 398 458 24,500 -900 Descending Washington Center
06:08PM 39.1325 -76.2472 43° Northeast 393 452 24,000 -300 Descending Washington Center
06:09PM 39.2164 -76.1542 41° Northeast 393 452 24,000  Level Washington Center
06:10PM 39.3022 -76.0664 38° Northeast 393 452 24,000  Level Washington Center
06:11PM 39.3858 -75.9808 38° Northeast 387 445 24,000 -840 Level Washington Center
06:12PM 39.4736 -75.9008 35° Northeast 381 438 22,400 -2,280 Descending Washington Center
06:14PM 39.6167 -75.7667 36° Northeast 354 407 18,100 -2,520 Descending Philadelphia TRACON
06:15PM 39.6833 -75.7000 38° Northeast 340 391 15,900 -2,280 Descending Philadelphia TRACON
06:16PM 39.7667 -75.6333 32° Northeast 322 371 13,600 -1,440 Descending Philadelphia TRACON
06:17PM 39.8500 -75.5500 38° Northeast 318 366 13,000 -300 Descending Philadelphia TRACON
06:18PM 39.9167 -75.5000 30° Northeast 324 373 13,000  Level Philadelphia TRACON
06:19PM 39.9833 -75.4167 44° Northeast 314 361 13,000  Level Philadelphia TRACON
06:20PM 40.0500 -75.3667 30° Northeast 312 359 13,000  Level Philadelphia TRACON
06:21PM 40.1333 -75.2833 37° Northeast 317 365 13,000 -600 Level Philadelphia TRACON
06:22PM 40.2000 -75.2167 37° Northeast 314 361 11,900 -1,440 Descending Philadelphia TRACON
06:24PM 40.3667 -75.0667 34° Northeast 275 316 8,200 -1,440 Descending New York TRACON
06:25PM 40.4167 -74.9833 52° Northeast 270 311 7,000 -1,320 Descending New York TRACON
06:26PM 40.4667 -74.9167 45° Northeast 268 308 5,600 -1,500 Descending New York TRACON
06:27PM 40.5167 -74.8500 45° Northeast 260 299 4,100 -1,320 Descending New York TRACON
06:28PM 40.5500 -74.7667 62° Northeast 254 292 3,000 -600 Descending New York TRACON
06:29PM 40.5667 -74.6833 75° East 242 278 3,000  Level New York TRACON
06:30PM 40.5667 -74.6000 90° East 258 297 3,000  Level New York TRACON
06:31PM 40.5833 -74.5000 78° East 226 260 3,000  Level New York TRACON
06:32PM 40.6000 -74.4333 72° East 220 253 3,000 -300 Level New York TRACON
06:33PM 40.6333 -74.3667 57° Northeast 218 251 2,400 -600 Descending New York TRACON
06:34PM 40.6833 -74.3167 37° Northeast 211 243 1,900 -300 Descending New York TRACON
06:35PM 40.7167 -74.2500 57° Northeast 219 252 1,900 -240 Level New York TRACON
06:36PM 40.7500 -74.2000 49° Northeast 181 208 1,500 -240 Descending New York TRACON
06:37PM 40.7833 -74.1500 49° Northeast 176 203 1,500 -300 Level New York TRACON
06:38PM 40.8167 -74.1167 37° Northeast 136 157 1,000 -600 Descending New York TRACON
06:40PM 40.8333 -74.0833 57° Northeast 114 131 300 -660 Descending New York TRACON